Caledonia, North Dakota
Current Conditions -  °F | °C
As of 7:34 AM on Wednesday 22 Oct 2014 (Local Time) from KCKN Reporting Station
Clear Clear  
Wind Chill: 54°   Ceiling: Unl
Heat Index: 54°   Visibility: 10mi
Dew Point: 43°   Wind: 25mph
Humidity: 67%   Direction: 170°S
Pressure: 29.84"   Gusts: 32mph
Location:  47.46°N, 96.88°W
Report Text: KCKN 221234Z AUTO 17022G28KT 10SM CLR 12/06 A2984 RMK AO2
Loading
Personal Weather Stations






























Interactive Weather Map
Tropical Storm Tracking
New forecast layout! Learn more

10-Day Weather Forecast

Advertisements
Track Severe Weather on mobile